Time;durP1;ratioP1;P1;durP2;ratioP2;P2;SDS_P1;SDS_P2;PMS_P1;PMS_P2;Temp;Humidity;BMP_temperature;BMP_pressure;BME280_temperature;BME280_humidity;BME280_pressure;Samples;Min_cycle;Max_cycle;Signal;HPM_P1;HPM_P2
2022/08/19 00:02:14;;;;;;;6.15;3.35;;;;;;;25.51;38.30;100028.88;5085849;28;20016;-71
2022/08/19 00:04:40;;;;;;;7.30;3.35;;;;;;;25.43;38.70;100038.88;5088791;28;20062;-73
2022/08/19 00:07:06;;;;;;;14.77;3.22;;;;;;;25.41;38.59;100029.22;5088423;28;20248;-73
2022/08/19 00:09:32;;;;;;;11.07;3.50;;;;;;;25.38;38.79;100029.63;5088227;28;20036;-73
2022/08/19 00:11:58;;;;;;;4.97;3.13;;;;;;;25.39;38.95;100029.44;5090123;28;20096;-73
2022/08/19 00:14:26;;;;;;;11.77;3.47;;;;;;;25.39;38.86;100037.56;5089541;28;20028;-73
2022/08/19 00:16:54;;;;;;;8.93;3.83;;;;;;;25.36;38.85;100043.41;5089583;28;20141;-69
2022/08/19 00:19:20;;;;;;;6.35;3.10;;;;;;;25.36;39.46;100037.97;5089266;28;20024;-73
2022/08/19 00:21:46;;;;;;;6.65;3.42;;;;;;;25.38;39.29;100040.47;5089745;28;20031;-74
2022/08/19 00:24:14;;;;;;;9.25;4.00;;;;;;;25.36;39.29;100045.28;5089209;28;20024;-75
2022/08/19 00:26:40;;;;;;;7.00;3.20;;;;;;;25.36;39.57;100040.69;5089486;28;20031;-74
2022/08/19 00:29:09;;;;;;;7.60;2.95;;;;;;;25.40;39.62;100041.09;5089606;28;20112;-75
2022/08/19 00:31:35;;;;;;;6.20;3.65;;;;;;;25.41;39.49;100040.06;5089640;28;20070;-73
2022/08/19 00:34:01;;;;;;;6.57;3.42;;;;;;;25.43;39.81;100046.16;5089328;28;20024;-72
2022/08/19 00:36:28;;;;;;;9.57;3.85;;;;;;;25.47;39.66;100038.44;5089176;28;20039;-73
2022/08/19 00:38:53;;;;;;;10.52;3.70;;;;;;;25.51;39.75;100045.97;5089041;28;20028;-75
2022/08/19 00:41:23;;;;;;;10.57;3.17;;;;;;;25.53;39.95;100046.56;5088569;28;20031;-72
2022/08/19 00:44:10;;;;;;;5.93;3.50;;;;;;;25.53;39.86;100038.44;5088911;28;20024;-71
2022/08/19 00:46:38;;;;;;;4.88;3.22;;;;;;;25.51;39.95;100048.69;5069562;28;20070;-71
2022/08/19 00:49:15;;;;;;;11.75;3.65;;;;;;;25.54;40.17;100050.94;5071726;28;20040;-69
2022/08/19 00:51:44;;;;;;;8.90;3.78;;;;;;;25.54;40.08;100055.53;5088586;28;20036;-75
2022/08/19 00:54:11;;;;;;;6.95;3.10;;;;;;;25.54;39.94;100061.78;5088742;28;20137;-71
2022/08/19 00:56:37;;;;;;;9.98;3.90;;;;;;;25.52;40.21;100057.63;5069374;28;20028;-72
2022/08/19 00:59:08;;;;;;;15.93;3.88;;;;;;;25.51;40.25;100062.22;5076266;28;20088;-70
2022/08/19 01:01:39;;;;;;;11.52;3.83;;;;;;;25.46;40.28;100070.13;5087437;28;20013;-73
2022/08/19 01:04:04;;;;;;;15.57;4.10;;;;;;;25.43;40.22;100082.22;5087147;28;20077;-77
2022/08/19 01:06:32;;;;;;;10.65;4.25;;;;;;;25.35;40.16;100073.41;5088275;28;20028;-75
2022/08/19 01:08:59;;;;;;;6.65;3.22;;;;;;;25.29;40.65;100075.88;5087716;28;20021;-75
2022/08/19 01:11:26;;;;;;;14.70;3.85;;;;;;;25.28;40.47;100079.63;5088338;28;20047;-74
2022/08/19 01:13:53;;;;;;;9.02;3.25;;;;;;;25.31;40.37;100085.69;5088123;28;20016;-77
2022/08/19 01:16:21;;;;;;;11.93;4.07;;;;;;;25.33;40.35;100087.13;5087411;28;20134;-76
2022/08/19 01:18:48;;;;;;;7.30;3.47;;;;;;;25.35;40.25;100095.91;5087828;28;20044;-75
2022/08/19 01:21:24;;;;;;;6.63;3.42;;;;;;;25.36;40.44;100089.44;5087085;28;20028;-78
2022/08/19 01:23:50;;;;;;;7.80;3.78;;;;;;;25.37;40.22;100082.13;5088056;28;20374;-73
2022/08/19 01:26:19;;;;;;;11.93;3.90;;;;;;;25.35;40.14;100087.78;5088035;28;20028;-77
2022/08/19 01:28:47;;;;;;;8.88;3.45;;;;;;;25.26;40.38;100081.72;5087344;28;20036;-75
2022/08/19 01:31:17;;;;;;;9.60;3.35;;;;;;;25.28;40.47;100089.66;5088154;28;20089;-76
2022/08/19 01:33:42;;;;;;;7.97;3.70;;;;;;;25.26;40.74;100084.41;5087414;28;20251;-75
2022/08/19 01:36:16;;;;;;;8.77;3.42;;;;;;;25.22;40.50;100088.56;5087255;28;20043;-75
2022/08/19 01:38:43;;;;;;;5.78;3.22;;;;;;;25.18;40.71;100087.31;5086927;28;20141;-78
2022/08/19 01:41:11;;;;;;;5.40;2.97;;;;;;;25.21;40.87;100077.94;5087755;28;20198;-76
2022/08/19 01:43:37;;;;;;;8.10;3.75;;;;;;;25.23;40.39;100076.69;5087159;28;20035;-77
2022/08/19 01:46:03;;;;;;;13.23;3.75;;;;;;;25.20;40.32;100074.41;5087171;28;20028;-74
2022/08/19 01:48:36;;;;;;;8.07;3.30;;;;;;;25.13;40.25;100073.56;5087251;28;20024;-75
2022/08/19 01:51:01;;;;;;;8.82;3.30;;;;;;;25.06;40.84;100070.00;5087233;28;20067;-77
2022/08/19 01:53:27;;;;;;;12.07;4.05;;;;;;;25.04;40.58;100074.78;5086490;28;20039;-77
2022/08/19 01:55:53;;;;;;;7.00;3.05;;;;;;;24.94;40.70;100070.56;5087494;28;20089;-75
2022/08/19 01:58:22;;;;;;;8.30;3.60;;;;;;;24.84;40.69;100078.25;5087406;28;20039;-76
2022/08/19 02:00:48;;;;;;;8.15;3.75;;;;;;;24.79;40.51;100075.28;5085469;28;20047;-74
2022/08/19 02:03:14;;;;;;;13.30;3.17;;;;;;;24.79;40.88;100062.63;5086878;28;20028;-75
2022/08/19 02:05:40;;;;;;;7.15;3.35;;;;;;;24.79;40.51;100059.91;5086977;28;20024;-76
2022/08/19 02:08:07;;;;;;;12.60;3.85;;;;;;;24.79;40.65;100054.50;5086693;28;20091;-76
2022/08/19 02:10:33;;;;;;;7.03;3.67;;;;;;;24.76;40.69;100059.47;5086654;28;20028;-75
2022/08/19 02:12:58;;;;;;;11.35;3.53;;;;;;;24.71;40.77;100060.06;5087193;28;20062;-75
2022/08/19 02:15:25;;;;;;;8.50;3.30;;;;;;;24.69;40.90;100064.84;5082623;28;20129;-75
2022/08/19 02:17:51;;;;;;;5.53;2.90;;;;;;;24.73;40.82;100070.69;5087034;28;20020;-73
2022/08/19 02:20:16;;;;;;;4.95;3.20;;;;;;;24.78;41.11;100097.97;5086539;28;20020;-75
2022/08/19 02:22:43;;;;;;;13.45;3.80;;;;;;;24.86;40.77;100105.09;5087000;28;20080;-74
2022/08/19 02:25:11;;;;;;;5.35;3.35;;;;;;;24.90;40.84;100104.50;5086365;28;20020;-74
2022/08/19 02:27:37;;;;;;;6.65;3.85;;;;;;;24.91;40.74;100113.44;5086819;28;20024;-76
2022/08/19 02:30:10;;;;;;;7.07;3.00;;;;;;;24.87;41.11;100110.31;5086322;28;20070;-76
2022/08/19 02:32:36;;;;;;;5.57;3.40;;;;;;;24.89;41.07;100099.28;5086939;28;20016;-76
2022/08/19 02:35:01;;;;;;;7.43;3.78;;;;;;;24.93;40.89;100112.22;5086790;28;20126;-76
2022/08/19 02:40:11;;;;;;;5.88;3.20;;;;;;;24.86;40.93;100100.53;5086701;28;20031;-76
2022/08/19 02:42:37;;;;;;;8.65;3.63;;;;;;;24.85;40.83;100100.75;5086927;28;20028;-73
2022/08/19 02:45:03;;;;;;;9.00;3.88;;;;;;;24.77;40.80;100101.75;5087058;28;20239;-77
2022/08/19 02:47:28;;;;;;;8.95;4.07;;;;;;;24.70;41.18;100101.72;5087198;28;20039;-74
2022/08/19 02:49:54;;;;;;;9.05;3.90;;;;;;;24.70;40.90;100103.56;5087293;28;20041;-76
2022/08/19 02:52:20;;;;;;;8.35;3.50;;;;;;;24.64;41.17;100105.19;5087498;28;20141;-75
2022/08/19 02:54:45;;;;;;;6.47;3.83;;;;;;;24.56;41.32;100098.06;5087086;28;20032;-76
2022/08/19 02:57:11;;;;;;;10.65;3.83;;;;;;;24.50;41.21;100104.25;5087185;28;20032;-77
2022/08/19 02:59:36;;;;;;;11.15;3.60;;;;;;;24.49;41.29;100097.16;5086951;28;20036;-77
2022/08/19 03:02:02;;;;;;;10.43;3.78;;;;;;;24.49;41.19;100098.00;5087479;28;20232;-75
2022/08/19 03:04:29;;;;;;;13.32;4.43;;;;;;;24.41;41.21;100105.44;5087237;28;20028;-77
2022/08/19 03:06:54;;;;;;;7.60;3.90;;;;;;;24.37;41.46;100103.13;5087122;28;20253;-76
2022/08/19 03:09:20;;;;;;;12.15;3.75;;;;;;;24.31;41.29;100100.38;5086856;28;20039;-76
2022/08/19 03:11:46;;;;;;;6.82;3.85;;;;;;;24.28;41.43;100107.03;5087249;28;20047;-76
2022/08/19 03:14:12;;;;;;;11.55;4.47;;;;;;;24.36;41.75;100103.34;5087175;28;20088;-75
2022/08/19 03:16:48;;;;;;;13.63;3.83;;;;;;;24.40;41.15;100117.28;5086686;28;20069;-76
2022/08/19 03:19:17;;;;;;;7.85;3.78;;;;;;;24.39;41.24;100113.78;5087168;28;20099;-75
2022/08/19 03:21:44;;;;;;;9.32;3.92;;;;;;;24.38;41.59;100117.50;5087189;28;20035;-76
2022/08/19 03:24:10;;;;;;;9.07;3.83;;;;;;;24.43;41.63;100123.13;5086437;28;20027;-76
2022/08/19 03:26:40;;;;;;;9.13;4.22;;;;;;;24.42;41.53;100123.34;5086496;28;20048;-75
2022/08/19 03:29:06;;;;;;;6.20;3.53;;;;;;;24.37;41.67;100126.66;5087129;28;20031;-75
2022/08/19 03:31:32;;;;;;;10.02;4.38;;;;;;;24.41;41.52;100117.09;5086980;28;20043;-75
2022/08/19 03:33:58;;;;;;;14.25;4.25;;;;;;;24.45;41.51;100125.66;5089671;28;20024;-76
2022/08/19 03:36:25;;;;;;;8.35;3.85;;;;;;;24.44;41.79;100124.00;5090700;28;20027;-77
2022/08/19 03:38:54;;;;;;;11.50;4.57;;;;;;;24.38;41.78;100125.63;5090536;28;20082;-76
2022/08/19 03:41:25;;;;;;;12.15;4.28;;;;;;;24.35;41.99;100116.00;5090814;28;20021;-77
2022/08/19 03:43:53;;;;;;;18.45;4.78;;;;;;;24.36;41.82;100114.16;5090655;28;20031;-76
2022/08/19 03:46:21;;;;;;;7.63;4.20;;;;;;;24.36;41.86;100112.28;5090474;28;20083;-77
2022/08/19 03:48:53;;;;;;;5.90;3.88;;;;;;;24.40;41.47;100112.75;5090577;28;20024;-75
2022/08/19 03:51:30;;;;;;;9.65;3.85;;;;;;;24.39;41.85;100111.06;5090520;28;20028;-76
2022/08/19 03:53:58;;;;;;;9.18;4.32;;;;;;;24.35;41.64;100113.31;5090531;28;20028;-76
2022/08/19 03:56:30;;;;;;;9.57;4.53;;;;;;;24.31;41.59;100114.75;5090166;28;20052;-76
2022/08/19 03:58:57;;;;;;;16.15;5.05;;;;;;;24.25;41.75;100112.00;5090029;28;20279;-76
2022/08/19 04:01:28;;;;;;;10.25;4.60;;;;;;;24.23;42.23;100113.03;5090201;28;20095;-77
2022/08/19 04:03:55;;;;;;;14.98;4.75;;;;;;;24.26;41.88;100121.78;5090473;28;20092;-75
2022/08/19 04:06:25;;;;;;;8.75;5.25;;;;;;;24.24;42.23;100116.56;5090417;28;20028;-76
2022/08/19 04:08:53;;;;;;;8.50;4.93;;;;;;;24.26;42.23;100127.19;5090249;28;20024;-76
2022/08/19 04:11:22;;;;;;;11.80;3.80;;;;;;;24.27;42.25;100128.84;5089967;28;20020;-74
2022/08/19 04:13:49;;;;;;;12.15;4.30;;;;;;;24.24;42.37;100121.97;5090153;28;20024;-74
2022/08/19 04:16:14;;;;;;;11.15;4.63;;;;;;;24.23;42.45;100123.84;5089902;28;20261;-75
2022/08/19 04:18:40;;;;;;;10.95;4.07;;;;;;;24.20;42.29;100126.09;5090145;28;20035;-75
2022/08/19 04:21:08;;;;;;;14.98;4.60;;;;;;;24.22;42.55;100129.44;5090154;28;20032;-76
2022/08/19 04:23:35;;;;;;;12.90;4.15;;;;;;;24.22;42.36;100129.44;5089666;28;20103;-76
2022/08/19 04:26:01;;;;;;;14.15;5.70;;;;;;;24.18;42.47;100125.47;5090039;28;20024;-77
2022/08/19 04:28:28;;;;;;;10.45;4.60;;;;;;;24.17;42.41;100116.50;5089908;28;20078;-76
2022/08/19 04:30:54;;;;;;;8.98;4.35;;;;;;;24.17;42.34;100124.63;5088879;28;20036;-75
2022/08/19 04:33:24;;;;;;;17.38;4.68;;;;;;;24.17;42.53;100126.50;5089858;28;20082;-74
2022/08/19 04:35:52;;;;;;;6.75;4.22;;;;;;;24.14;42.59;100135.81;5089475;28;20190;-75
2022/08/19 04:38:20;;;;;;;6.22;3.47;;;;;;;24.22;42.89;100122.19;5089707;28;20040;-75
2022/08/19 04:43:33;;;;;;;8.25;3.78;;;;;;;24.22;42.20;100135.69;5088864;28;20059;-75
2022/08/19 04:46:08;;;;;;;9.20;5.30;;;;;;;24.21;42.39;100138.56;5089448;28;20096;-75
2022/08/19 04:48:35;;;;;;;16.20;4.68;;;;;;;24.25;42.68;100145.28;5089060;28;20012;-75
2022/08/19 04:51:01;;;;;;;8.82;4.63;;;;;;;24.32;42.67;100135.38;5089169;28;20294;-74
2022/08/19 04:53:30;;;;;;;12.27;5.00;;;;;;;24.40;42.49;100137.09;5089446;28;20103;-74
2022/08/19 04:55:57;;;;;;;8.52;5.15;;;;;;;24.42;42.24;100139.56;5089037;28;20125;-74
2022/08/19 04:58:25;;;;;;;13.18;5.28;;;;;;;24.44;42.01;100142.94;5089420;28;20021;-74
2022/08/19 05:00:50;;;;;;;9.55;4.40;;;;;;;24.55;42.17;100139.66;5089333;28;20027;-74
2022/08/19 05:03:16;;;;;;;10.30;4.88;;;;;;;24.79;41.64;100138.38;5089009;28;20048;-74
2022/08/19 05:05:44;;;;;;;7.30;5.10;;;;;;;25.02;41.67;100139.94;5089047;28;20238;-74
2022/08/19 05:08:10;;;;;;;11.57;4.68;;;;;;;25.11;41.20;100137.91;5089228;28;20028;-74
2022/08/19 05:10:37;;;;;;;11.45;5.30;;;;;;;25.04;41.27;100143.28;5088654;28;20184;-74
2022/08/19 05:13:03;;;;;;;12.98;4.72;;;;;;;24.89;41.46;100146.16;5088189;28;20066;-75
2022/08/19 05:15:30;;;;;;;11.88;5.18;;;;;;;24.71;41.57;100148.53;5084289;28;20241;-74
2022/08/19 05:23:23;;;;;;;11.68;4.57;;;;;;;24.79;41.80;100151.06;5088587;28;20051;-75
2022/08/19 05:25:51;;;;;;;14.15;4.28;;;;;;;24.89;41.57;100142.59;5088585;28;20036;-75
2022/08/19 05:28:18;;;;;;;9.43;4.50;;;;;;;24.97;41.43;100145.16;5088203;28;20089;-74
2022/08/19 05:30:44;;;;;;;12.68;4.53;;;;;;;25.01;41.49;100143.69;5088490;28;20024;-75
2022/08/19 05:33:11;;;;;;;7.30;4.45;;;;;;;25.05;41.49;100150.38;5088592;28;20028;-75
2022/08/19 05:35:38;;;;;;;12.65;4.47;;;;;;;25.06;41.28;100140.41;5088599;28;20051;-74
2022/08/19 05:38:08;;;;;;;15.38;5.13;;;;;;;24.89;41.63;100146.16;5088239;28;20024;-73
2022/08/19 05:40:38;;;;;;;18.13;5.40;;;;;;;24.63;41.94;100142.19;5088014;28;20021;-73
2022/08/19 05:43:05;;;;;;;11.52;4.68;;;;;;;24.54;42.29;100146.09;5088563;28;20265;-74
2022/08/19 05:45:31;;;;;;;12.45;5.13;;;;;;;24.56;42.36;100144.03;5088421;28;20032;-75
2022/08/19 05:47:58;;;;;;;9.07;4.88;;;;;;;24.63;42.38;100146.78;5087980;28;20044;-73
2022/08/19 05:50:25;;;;;;;17.50;5.30;;;;;;;24.63;42.36;100146.78;5087604;28;20070;-74
2022/08/19 05:52:51;;;;;;;9.85;4.70;;;;;;;24.72;42.06;100142.91;5087925;28;20056;-73
2022/08/19 05:55:16;;;;;;;7.60;4.20;;;;;;;24.76;42.34;100141.50;5086733;28;20035;-74
2022/08/19 05:57:42;;;;;;;21.42;5.47;;;;;;;24.86;42.31;100142.97;5088111;28;20024;-73
2022/08/19 06:00:10;;;;;;;12.25;4.88;;;;;;;24.88;42.08;100149.88;5087880;28;20032;-73
2022/08/19 06:02:36;;;;;;;16.85;4.93;;;;;;;24.82;42.20;100145.25;5087434;28;20028;-72
2022/08/19 06:05:05;;;;;;;9.80;4.18;;;;;;;24.65;42.53;100140.13;5087560;28;20277;-73
2022/08/19 06:07:31;;;;;;;11.45;4.35;;;;;;;24.60;42.76;100147.19;5087979;28;20078;-72
2022/08/19 06:09:56;;;;;;;13.88;5.20;;;;;;;24.57;42.83;100148.41;5087187;28;20036;-72
2022/08/19 06:12:28;;;;;;;11.77;4.40;;;;;;;24.53;42.68;100141.72;5087341;28;20013;-70
2022/08/19 06:14:54;;;;;;;11.65;5.32;;;;;;;24.44;42.78;100145.63;5070701;28;20145;-73
2022/08/19 06:17:24;;;;;;;16.77;4.88;;;;;;;24.37;42.92;100148.28;5087343;28;20025;-73
2022/08/19 06:19:50;;;;;;;11.60;5.22;;;;;;;24.35;42.96;100156.59;5087831;28;20020;-73
2022/08/19 06:22:15;;;;;;;11.80;4.53;;;;;;;24.35;43.20;100145.75;5087848;28;20271;-74
2022/08/19 06:24:41;;;;;;;12.40;4.22;;;;;;;24.38;43.12;100153.50;5087089;28;20024;-72
2022/08/19 06:27:07;;;;;;;12.02;4.80;;;;;;;24.37;43.30;100149.09;5103912;28;20149;-75
2022/08/19 06:29:33;;;;;;;17.98;4.80;;;;;;;24.43;43.46;100152.88;5087470;28;20031;-74
2022/08/19 06:32:00;;;;;;;12.18;4.47;;;;;;;24.42;43.55;100145.81;5087101;28;20095;-75
2022/08/19 06:34:28;;;;;;;10.73;5.10;;;;;;;24.36;43.71;100149.31;5087585;28;20077;-74
2022/08/19 06:36:54;;;;;;;12.60;4.78;;;;;;;24.34;43.83;100144.09;5087690;28;20031;-74
2022/08/19 06:39:26;;;;;;;11.57;5.22;;;;;;;24.45;43.22;100150.84;5087097;28;20155;-76
2022/08/19 06:41:55;;;;;;;13.35;4.07;;;;;;;24.54;43.24;100154.22;5087591;28;20016;-75
2022/08/19 06:44:23;;;;;;;12.95;4.28;;;;;;;24.68;42.91;100155.97;5087054;28;20137;-74
2022/08/19 06:46:49;;;;;;;13.13;4.93;;;;;;;24.74;43.06;100153.56;5087423;28;20042;-75
2022/08/19 06:49:16;;;;;;;8.15;4.80;;;;;;;24.77;42.91;100147.75;5087469;28;20241;-74
2022/08/19 06:51:43;;;;;;;14.27;4.38;;;;;;;24.80;42.98;100147.31;5087264;28;20047;-74
2022/08/19 06:54:10;;;;;;;12.80;5.03;;;;;;;24.83;42.69;100155.06;5087457;28;20036;-74
2022/08/19 06:56:36;;;;;;;17.45;5.13;;;;;;;24.86;43.02;100148.41;5086538;28;20021;-74
2022/08/19 06:59:05;;;;;;;12.70;5.03;;;;;;;24.90;42.62;100145.09;5086866;28;20078;-73
2022/08/19 07:01:42;;;;;;;7.00;4.72;;;;;;;24.95;42.59;100150.75;5086558;28;20028;-75
2022/08/19 07:04:09;;;;;;;18.08;4.65;;;;;;;25.02;42.25;100149.94;5087319;28;20044;-73
2022/08/19 07:06:36;;;;;;;10.05;4.18;;;;;;;25.04;41.96;100156.81;5087642;28;20141;-75
2022/08/19 07:09:02;;;;;;;15.63;4.35;;;;;;;25.03;42.11;100157.03;5091395;28;20028;-73
2022/08/19 07:11:28;;;;;;;11.52;4.93;;;;;;;25.03;42.16;100154.31;5091359;28;20038;-75
2022/08/19 07:13:55;;;;;;;13.48;4.68;;;;;;;25.05;42.47;100154.97;5090719;28;20054;-74
2022/08/19 07:16:21;;;;;;;14.95;4.50;;;;;;;25.06;42.20;100156.63;5090847;28;20027;-75
2022/08/19 07:18:49;;;;;;;13.45;4.28;;;;;;;24.96;41.96;100157.81;5106774;28;20012;-73
2022/08/19 07:21:20;;;;;;;10.95;4.80;;;;;;;24.97;42.31;100156.78;5090692;28;20024;-74
2022/08/19 07:23:46;;;;;;;10.95;4.32;;;;;;;25.03;42.06;100160.56;5090731;28;20221;-72
2022/08/19 07:26:23;;;;;;;18.08;4.30;;;;;;;25.08;41.85;100147.28;5091166;28;20031;-75
2022/08/19 07:28:49;;;;;;;10.63;4.68;;;;;;;25.14;41.62;100157.31;5091006;28;20020;-74
2022/08/19 07:31:21;;;;;;;14.27;6.18;;;;;;;25.19;41.83;100151.28;5089703;28;20133;-71
2022/08/19 07:33:48;;;;;;;13.77;4.43;;;;;;;25.22;41.33;100153.56;5090090;28;20091;-74
2022/08/19 07:36:17;;;;;;;6.32;3.50;;;;;;;25.24;41.24;100156.91;5090665;28;20137;-75
2022/08/19 07:38:45;;;;;;;12.25;4.47;;;;;;;25.31;41.39;100162.34;5090257;28;20028;-76
2022/08/19 07:41:12;;;;;;;11.27;4.25;;;;;;;25.41;41.21;100168.28;5070847;28;20027;-74
2022/08/19 07:43:39;;;;;;;11.48;3.92;;;;;;;25.51;40.92;100158.91;5081097;28;20020;-74
2022/08/19 07:46:06;;;;;;;13.05;4.72;;;;;;;25.54;40.72;100162.03;5090417;28;20180;-76
2022/08/19 07:48:32;;;;;;;10.98;3.85;;;;;;;25.60;40.61;100163.09;5089823;28;20032;-74
2022/08/19 07:51:01;;;;;;;12.32;4.07;;;;;;;25.59;40.26;100148.72;5089498;28;20113;-75
2022/08/19 07:53:29;;;;;;;9.10;3.75;;;;;;;25.57;40.65;100158.09;5089996;28;20249;-77
2022/08/19 07:55:55;;;;;;;8.30;4.35;;;;;;;25.59;40.41;100164.13;5089166;28;20025;-77
2022/08/19 07:58:21;;;;;;;10.25;4.00;;;;;;;25.58;40.41;100155.19;5089815;28;20070;-76
2022/08/19 08:00:49;;;;;;;9.57;3.65;;;;;;;25.65;40.32;100159.78;5091256;28;20028;-74
2022/08/19 08:03:17;;;;;;;8.23;3.17;;;;;;;25.69;39.91;100163.72;5089654;28;20031;-73
2022/08/19 08:11:14;;;;;;;12.32;3.85;;;;;;;25.32;40.04;100168.63;5088060;28;20129;-74
2022/08/19 08:13:41;;;;;;;10.75;3.55;;;;;;;25.28;40.32;100166.31;5089666;28;20021;-73
2022/08/19 08:16:06;;;;;;;17.00;3.90;;;;;;;25.33;40.13;100179.22;5089028;28;20081;-73
2022/08/19 08:18:34;;;;;;;14.20;3.70;;;;;;;25.38;40.07;100168.63;5089056;28;20029;-74
2022/08/19 08:20:59;;;;;;;10.40;3.50;;;;;;;25.37;40.34;100175.09;5089891;28;20020;-75
2022/08/19 08:23:25;;;;;;;11.57;3.53;;;;;;;25.39;40.42;100177.59;5089721;28;20133;-74
2022/08/19 08:25:54;;;;;;;9.18;3.97;;;;;;;25.36;40.16;100176.13;5088263;28;20118;-73
2022/08/19 08:28:20;;;;;;;12.60;4.32;;;;;;;25.39;40.45;100183.00;5089769;28;20020;-73
2022/08/19 08:30:48;;;;;;;11.10;3.55;;;;;;;25.37;40.56;100169.66;5089297;28;20016;-72
2022/08/19 08:33:18;;;;;;;6.65;4.22;;;;;;;25.20;41.10;100171.06;5087603;28;20039;-72
2022/08/19 08:35:45;;;;;;;14.52;4.22;;;;;;;25.13;41.19;100192.69;5088989;28;20118;-75
2022/08/19 08:38:11;;;;;;;12.95;3.85;;;;;;;25.14;40.98;100187.09;5089502;28;20024;-75
2022/08/19 08:41:04;;;;;;;9.60;4.22;;;;;;;25.19;41.04;100180.22;5089080;28;20069;-74
2022/08/19 08:43:34;;;;;;;9.65;3.47;;;;;;;25.26;41.00;100184.63;5086196;28;20073;-75
2022/08/19 08:46:05;;;;;;;11.87;3.90;;;;;;;25.33;40.55;100181.94;5086998;28;20025;-74
2022/08/19 08:48:37;;;;;;;12.68;3.55;;;;;;;25.32;40.68;100174.84;5088515;28;20427;-75
2022/08/19 08:51:07;;;;;;;6.95;3.30;;;;;;;25.37;40.75;100172.38;5088681;28;20052;-75
2022/08/19 08:53:34;;;;;;;12.45;3.88;;;;;;;25.40;40.44;100169.28;5088998;28;20141;-75
2022/08/19 08:56:03;;;;;;;10.63;3.60;;;;;;;25.48;40.44;100173.72;5088636;28;20048;-75
2022/08/19 08:58:42;;;;;;;8.75;3.50;;;;;;;25.54;39.69;100172.88;5088858;28;20051;-74
2022/08/19 09:01:11;;;;;;;9.55;2.95;;;;;;;25.58;40.10;100178.75;5088857;28;20021;-74
2022/08/19 09:03:39;;;;;;;11.35;2.90;;;;;;;25.62;39.55;100171.03;5089080;28;20048;-74
2022/08/19 09:06:12;;;;;;;4.43;3.10;;;;;;;25.67;39.51;100179.34;5088939;28;20175;-75
2022/08/19 09:08:49;;;;;;;11.70;2.92;;;;;;;25.74;39.45;100182.94;5088943;28;20287;-74
2022/08/19 09:11:33;;;;;;;9.13;2.92;;;;;;;25.73;38.97;100186.69;5088920;28;20244;-75
2022/08/19 09:14:28;;;;;;;10.52;2.65;;;;;;;25.67;38.54;100173.94;5088284;28;20044;-75
2022/08/19 09:16:53;;;;;;;5.88;2.67;;;;;;;25.62;38.45;100173.75;5088853;28;20245;-74
2022/08/19 09:19:18;;;;;;;6.72;2.40;;;;;;;25.62;38.80;100174.56;5087693;28;20027;-75
2022/08/19 09:21:45;;;;;;;11.00;2.83;;;;;;;25.70;38.69;100184.38;5088831;28;20102;-75
2022/08/19 09:24:12;;;;;;;9.40;2.85;;;;;;;25.75;38.50;100185.44;5087853;28;20012;-75
2022/08/19 09:26:37;;;;;;;8.25;3.80;;;;;;;25.80;38.82;100182.13;5088106;28;20099;-74
2022/08/19 09:29:05;;;;;;;9.43;2.90;;;;;;;25.85;38.63;100184.22;5087453;28;20229;-74
2022/08/19 09:31:32;;;;;;;7.90;2.97;;;;;;;25.86;38.63;100183.19;5086726;28;20016;-74
2022/08/19 09:33:59;;;;;;;12.95;3.08;;;;;;;25.84;38.59;100187.97;5087291;28;20023;-74
2022/08/19 09:36:29;;;;;;;11.00;3.45;;;;;;;25.83;38.75;100189.81;5089478;28;20030;-74
2022/08/19 09:38:55;;;;;;;9.45;3.30;;;;;;;25.80;38.88;100186.69;5089953;28;20264;-74
2022/08/19 09:41:24;;;;;;;6.63;2.85;;;;;;;25.81;38.81;100191.06;5087621;28;20079;-74
2022/08/19 09:43:55;;;;;;;8.00;3.20;;;;;;;25.80;38.97;100192.13;5085479;28;20087;-74
2022/08/19 09:46:22;;;;;;;7.82;3.20;;;;;;;25.81;39.17;100202.75;5086800;28;20032;-74
2022/08/19 09:48:50;;;;;;;14.80;4.13;;;;;;;25.77;38.92;100187.94;5086643;28;20036;-75
2022/08/19 09:51:19;;;;;;;6.65;3.45;;;;;;;25.77;38.96;100196.09;5086216;28;20028;-74
2022/08/19 09:53:49;;;;;;;8.35;3.05;;;;;;;25.71;38.75;100186.91;5086798;28;20060;-73
2022/08/19 09:56:15;;;;;;;11.82;3.80;;;;;;;25.70;38.95;100185.22;5087566;28;20237;-75
2022/08/19 09:58:41;;;;;;;9.45;3.10;;;;;;;25.70;38.88;100185.22;5087488;28;20024;-73
2022/08/19 10:01:07;;;;;;;10.85;3.50;;;;;;;25.74;38.59;100170.19;5087917;28;20036;-72
2022/08/19 10:03:35;;;;;;;13.90;3.53;;;;;;;25.79;38.05;100204.84;5086105;28;20253;-71
2022/08/19 10:06:03;;;;;;;15.23;3.17;;;;;;;25.72;36.91;100204.84;5085987;28;20024;-70
2022/08/19 10:08:32;;;;;;;13.75;3.00;;;;;;;25.67;35.44;100207.31;5087105;28;20272;-70
2022/08/19 10:10:59;;;;;;;8.80;2.83;;;;;;;25.65;35.15;100205.84;5087348;28;20016;-74
2022/08/19 10:13:27;;;;;;;13.80;2.70;;;;;;;25.65;34.47;100208.56;5087544;28;20091;-75
2022/08/19 10:15:56;;;;;;;8.43;2.42;;;;;;;25.65;34.39;100213.97;5086593;28;20025;-74
2022/08/19 10:18:23;;;;;;;5.38;2.83;;;;;;;25.69;34.06;100205.25;5087497;28;20012;-74
2022/08/19 10:20:52;;;;;;;7.28;2.55;;;;;;;25.76;33.81;100216.09;5087635;28;20133;-74
2022/08/19 10:23:19;;;;;;;11.00;4.00;;;;;;;25.77;33.81;100201.50;5087717;28;20088;-75
2022/08/19 10:25:45;;;;;;;11.00;2.60;;;;;;;25.78;33.64;100213.16;5087289;28;20051;-75
2022/08/19 10:28:11;;;;;;;9.38;2.65;;;;;;;25.78;33.42;100202.31;5087705;28;20036;-75
2022/08/19 10:30:38;;;;;;;12.93;3.50;;;;;;;25.79;33.68;100214.84;5087230;28;20035;-76
2022/08/19 10:33:05;;;;;;;15.05;2.80;;;;;;;25.77;33.14;100201.50;5087708;28;20090;-74
2022/08/19 10:35:31;;;;;;;6.55;3.15;;;;;;;25.78;33.39;100211.31;5087128;28;20051;-73
2022/08/19 10:38:01;;;;;;;11.85;2.90;;;;;;;25.79;32.83;100217.56;5087543;28;20245;-75
2022/08/19 10:40:27;;;;;;;11.40;2.90;;;;;;;25.75;32.17;100209.00;5087599;28;20145;-73
2022/08/19 10:42:55;;;;;;;16.30;3.40;;;;;;;25.72;31.78;100204.84;5087345;28;20031;-75
2022/08/19 10:45:25;;;;;;;8.73;2.10;;;;;;;25.69;31.04;100201.69;5087555;28;20052;-75
2022/08/19 10:47:50;;;;;;;7.00;2.33;;;;;;;25.62;31.24;100200.84;5087589;28;20013;-75
2022/08/19 10:53:10;;;;;;;9.95;2.60;;;;;;;25.62;30.32;100206.25;5087546;28;20055;-75
2022/08/19 10:58:23;;;;;;;9.60;3.03;;;;;;;25.60;30.19;100214.56;5086420;28;20080;-75
2022/08/19 11:00:54;;;;;;;18.10;3.20;;;;;;;25.63;30.21;100210.63;5087340;28;20126;-74
2022/08/19 11:03:20;;;;;;;7.75;2.42;;;;;;;25.64;30.24;100212.31;5087391;28;20074;-75
2022/08/19 11:05:45;;;;;;;7.82;2.47;;;;;;;25.68;30.17;100222.53;5087063;28;20172;-75
2022/08/19 11:08:11;;;;;;;10.15;2.47;;;;;;;25.67;29.91;100207.31;5087463;28;20028;-75
2022/08/19 11:10:40;;;;;;;11.55;2.60;;;;;;;25.67;29.57;100211.88;5087261;28;20037;-74
2022/08/19 11:13:06;;;;;;;12.27;2.67;;;;;;;25.66;29.27;100199.41;5087256;28;20048;-75
2022/08/19 11:15:33;;;;;;;10.77;3.20;;;;;;;25.62;29.70;100200.84;5086637;28;20066;-74
2022/08/19 11:17:58;;;;;;;19.35;3.35;;;;;;;25.56;29.59;100199.78;5087190;28;20025;-75
2022/08/19 11:20:24;;;;;;;7.47;2.70;;;;;;;25.55;29.54;100214.38;5086604;28;20236;-75
2022/08/19 11:22:53;;;;;;;14.27;2.70;;;;;;;25.50;29.99;100201.44;5087207;28;20039;-73
2022/08/19 11:25:19;;;;;;;8.45;2.72;;;;;;;25.50;29.75;100206.00;5087044;28;20044;-74
2022/08/19 11:27:45;;;;;;;4.60;2.47;;;;;;;25.46;30.05;100205.56;5087104;28;20051;-74
2022/08/19 11:30:12;;;;;;;5.93;2.38;;;;;;;25.46;30.05;100193.88;5086488;28;20021;-73
2022/08/19 11:32:38;;;;;;;6.65;2.40;;;;;;;25.50;30.31;100187.88;5086704;28;20237;-74
2022/08/19 11:35:04;;;;;;;15.98;2.38;;;;;;;25.56;30.32;100195.19;5086536;28;20035;-74
2022/08/19 11:37:30;;;;;;;21.13;3.03;;;;;;;25.58;30.16;100193.09;5087009;28;20253;-73
2022/08/19 11:39:55;;;;;;;6.22;2.25;;;;;;;25.59;30.56;100199.34;5086481;28;20024;-74
2022/08/19 11:45:05;;;;;;;8.43;2.40;;;;;;;25.57;30.08;100196.84;5086369;28;20145;-74
2022/08/19 11:47:31;;;;;;;11.05;2.75;;;;;;;25.53;30.09;100197.47;5086565;28;20053;-75
2022/08/19 11:49:56;;;;;;;9.93;2.10;;;;;;;25.50;30.07;100204.16;5086383;28;20186;-74